createdAt,value
2022-12-19T00:00:32.060Z,26.37
2022-12-19T00:03:01.921Z,29.77
2022-12-19T00:05:30.410Z,29.83
2022-12-19T00:07:59.126Z,30.27
2022-12-19T00:10:32.573Z,31.87
2022-12-19T00:13:00.850Z,28.80
2022-12-19T00:15:29.152Z,34.03
2022-12-19T00:17:57.443Z,28.83
2022-12-19T00:20:27.138Z,29.37
2022-12-19T00:22:55.428Z,30.37
2022-12-19T00:25:23.755Z,29.67
2022-12-19T00:27:53.420Z,26.43
2022-12-19T00:30:21.788Z,29.43
2022-12-19T00:32:50.562Z,30.20
2022-12-19T00:35:18.823Z,31.07
2022-12-19T00:37:49.694Z,28.83
2022-12-19T00:40:18.627Z,27.00
2022-12-19T00:42:53.258Z,30.57
2022-12-19T00:45:22.218Z,29.00
2022-12-19T00:47:50.544Z,29.70
2022-12-19T00:50:18.915Z,29.07
2022-12-19T00:52:48.665Z,25.40
2022-12-19T00:55:19.303Z,24.83
2022-12-19T00:57:48.498Z,32.20
2022-12-19T01:00:17.912Z,26.70
2022-12-19T01:02:46.849Z,28.97
2022-12-19T01:05:15.339Z,23.77
2022-12-19T01:07:43.634Z,27.73
2022-12-19T01:10:13.268Z,25.10
2022-12-19T01:12:46.072Z,29.57
2022-12-19T01:15:15.934Z,27.27
2022-12-19T01:17:44.958Z,28.30
2022-12-19T01:20:14.857Z,27.90
2022-12-19T01:22:43.897Z,31.53
2022-12-19T01:25:16.323Z,25.07
2022-12-19T01:27:44.628Z,35.77
2022-12-19T01:30:13.993Z,23.70
2022-12-19T01:32:43.576Z,34.53
2022-12-19T01:35:18.839Z,28.57
2022-12-19T01:37:50.579Z,30.67
2022-12-19T01:40:20.356Z,29.93
2022-12-19T01:42:49.188Z,28.03
2022-12-19T01:45:32.028Z,30.50
2022-12-19T01:48:17.827Z,29.87
2022-12-19T01:51:01.062Z,27.60
2022-12-19T01:53:35.507Z,25.63
2022-12-19T01:56:08.497Z,28.80
2022-12-19T01:58:37.953Z,28.20
2022-12-19T02:01:07.042Z,25.00
2022-12-19T02:03:37.225Z,26.17
2022-12-19T02:06:06.741Z,26.37
2022-12-19T02:08:35.487Z,28.83
2022-12-19T02:11:03.905Z,28.43
2022-12-19T02:13:35.037Z,25.47
2022-12-19T02:16:11.101Z,24.67
2022-12-19T02:18:45.263Z,30.77
2022-12-19T02:21:31.934Z,23.43
2022-12-19T02:24:37.660Z,26.17
2022-12-19T02:27:26.482Z,25.10
2022-12-19T02:30:12.469Z,26.60
2022-12-19T02:32:50.796Z,23.43
2022-12-19T02:35:27.347Z,26.17
2022-12-19T02:38:01.243Z,26.53
2022-12-19T02:40:35.871Z,26.70
2022-12-19T02:43:05.409Z,25.67
2022-12-19T02:45:36.815Z,26.27
2022-12-19T02:48:09.218Z,28.53
2022-12-19T02:50:40.478Z,29.20
2022-12-19T02:53:10.071Z,28.13
2022-12-19T02:55:45.491Z,22.47
2022-12-19T02:58:35.286Z,24.23
2022-12-19T03:01:12.394Z,24.60
2022-12-19T03:03:48.884Z,25.03
2022-12-19T03:06:25.078Z,28.57
2022-12-19T03:08:57.159Z,24.97
2022-12-19T03:11:27.133Z,24.30
2022-12-19T03:13:59.230Z,23.20
2022-12-19T03:16:28.394Z,26.90
2022-12-19T03:18:58.876Z,22.97
2022-12-19T03:21:30.541Z,24.73
2022-12-19T03:23:59.405Z,21.70
2022-12-19T03:26:29.882Z,24.67
2022-12-19T03:29:02.432Z,21.80
2022-12-19T03:31:33.052Z,21.50
2022-12-19T03:34:06.538Z,23.40
2022-12-19T03:36:42.640Z,25.43
2022-12-19T03:39:12.105Z,22.93
2022-12-19T03:41:58.423Z,25.40
2022-12-19T03:44:29.811Z,26.20
2022-12-19T03:47:01.325Z,27.33
2022-12-19T03:49:31.161Z,22.17
2022-12-19T03:52:02.482Z,25.47
2022-12-19T03:54:32.639Z,27.23
2022-12-19T03:57:06.256Z,22.67
2022-12-19T03:59:37.496Z,25.87
2022-12-19T04:02:06.061Z,23.97
2022-12-19T04:04:38.557Z,23.63
2022-12-19T04:07:10.614Z,25.83
2022-12-19T04:09:39.252Z,22.17
2022-12-19T04:12:10.095Z,22.33
2022-12-19T04:14:41.904Z,21.97
2022-12-19T04:17:16.639Z,20.43
2022-12-19T04:19:51.003Z,25.77
2022-12-19T04:22:24.116Z,25.43
2022-12-19T04:24:53.470Z,19.63
2022-12-19T04:27:22.209Z,24.57
2022-12-19T04:29:52.928Z,21.40
2022-12-19T04:32:21.464Z,21.47
2022-12-19T04:34:51.163Z,26.07
2022-12-19T04:37:20.311Z,23.93
2022-12-19T04:39:48.719Z,20.43
2022-12-19T04:42:16.895Z,22.23
2022-12-19T04:44:45.160Z,21.27
2022-12-19T04:47:13.440Z,22.00
2022-12-19T04:49:41.706Z,22.77
2022-12-19T04:52:11.462Z,19.03
2022-12-19T04:54:39.680Z,16.33
2022-12-19T04:57:07.887Z,21.60
2022-12-19T04:59:36.156Z,25.93
2022-12-19T05:02:04.587Z,20.97
2022-12-19T05:04:35.863Z,21.80
2022-12-19T05:07:04.317Z,18.80
2022-12-19T05:09:34.377Z,24.13
2022-12-19T05:12:06.003Z,20.60
2022-12-19T05:14:34.710Z,22.50
2022-12-19T05:17:02.991Z,22.33
2022-12-19T05:19:31.395Z,19.70
2022-12-19T05:21:59.994Z,25.30
2022-12-19T05:24:29.292Z,21.33
2022-12-19T05:26:58.884Z,18.10
2022-12-19T05:29:27.120Z,21.20
2022-12-19T05:31:55.420Z,20.90
2022-12-19T05:34:25.566Z,22.63
2022-12-19T05:36:54.790Z,20.80
2022-12-19T05:39:23.099Z,21.03
2022-12-19T05:41:51.419Z,19.40
2022-12-19T05:44:21.003Z,19.70
2022-12-19T05:46:49.479Z,18.50
2022-12-19T05:49:17.984Z,20.77
2022-12-19T05:51:49.220Z,18.13
2022-12-19T05:54:17.462Z,20.97
2022-12-19T05:56:46.054Z,21.50
2022-12-19T05:59:14.528Z,20.30
2022-12-19T06:01:44.341Z,18.33
2022-12-19T06:04:12.783Z,22.57
2022-12-19T06:06:41.508Z,20.73
2022-12-19T06:09:09.916Z,20.97
2022-12-19T06:11:38.147Z,18.20
2022-12-19T06:14:09.311Z,16.60
2022-12-19T06:16:38.064Z,20.43
2022-12-19T06:19:07.746Z,20.97
2022-12-19T06:21:39.747Z,20.67
2022-12-19T06:24:13.851Z,19.93
2022-12-19T06:26:42.496Z,21.33
2022-12-19T06:29:10.827Z,18.10
2022-12-19T06:31:39.160Z,19.53
2022-12-19T06:34:10.706Z,19.87
2022-12-19T06:36:39.244Z,21.63
2022-12-19T06:39:13.311Z,20.13
2022-12-19T06:41:59.268Z,21.33
2022-12-19T06:44:27.641Z,22.03
2022-12-19T06:46:55.913Z,20.47
2022-12-19T06:49:25.505Z,21.50
2022-12-19T06:51:53.723Z,22.67
2022-12-19T06:54:21.997Z,19.47
2022-12-19T06:56:50.325Z,20.17
2022-12-19T06:59:18.634Z,19.50
2022-12-19T07:01:54.595Z,20.87
2022-12-19T07:04:28.095Z,19.70
2022-12-19T07:06:56.478Z,17.90
2022-12-19T07:09:24.747Z,20.73
2022-12-19T07:11:53.006Z,20.77
2022-12-19T07:14:21.365Z,20.87
2022-12-19T07:16:49.997Z,20.90
2022-12-19T07:19:18.643Z,19.90
2022-12-19T07:21:48.491Z,21.43
2022-12-19T07:24:16.883Z,19.43
2022-12-19T07:26:45.849Z,19.77
2022-12-19T07:29:14.867Z,21.77
2022-12-19T07:31:43.150Z,21.33
2022-12-19T07:34:11.493Z,19.47
2022-12-19T07:36:40.210Z,23.87
2022-12-19T07:39:10.130Z,21.40
2022-12-19T07:41:38.753Z,20.70
2022-12-19T07:44:07.735Z,19.87
2022-12-19T07:46:36.058Z,19.67
2022-12-19T07:49:04.376Z,21.77
2022-12-19T07:51:33.103Z,24.50
2022-12-19T07:54:01.627Z,22.20
2022-12-19T07:56:34.931Z,24.00
2022-12-19T07:59:03.682Z,21.48
2022-12-19T08:01:32.353Z,20.00
2022-12-19T08:04:00.947Z,21.80
2022-12-19T08:06:29.391Z,22.97
2022-12-19T08:08:57.620Z,21.80
2022-12-19T08:11:27.949Z,19.97
2022-12-19T08:13:58.661Z,19.37
2022-12-19T08:16:27.899Z,24.87
2022-12-19T08:18:56.738Z,18.63
2022-12-19T08:21:25.195Z,19.47
2022-12-19T08:23:53.826Z,20.30
2022-12-19T08:26:25.488Z,20.07
2022-12-19T08:28:54.233Z,20.80
2022-12-19T08:31:26.173Z,18.83
2022-12-19T08:33:56.027Z,20.33
2022-12-19T08:36:24.996Z,19.10
2022-12-19T08:38:53.946Z,18.47
2022-12-19T08:41:23.296Z,22.43
2022-12-19T08:43:52.757Z,20.00
2022-12-19T08:46:21.870Z,20.73
2022-12-19T08:48:51.748Z,19.87
2022-12-19T08:51:20.023Z,20.03
2022-12-19T08:53:48.607Z,20.33
2022-12-19T08:56:18.856Z,20.37
2022-12-19T08:58:47.255Z,19.33
2022-12-19T09:01:19.363Z,21.97
2022-12-19T09:04:56.377Z,18.40
2022-12-19T09:06:37.998Z,20.73
2022-12-19T09:09:06.833Z,21.90
2022-12-19T09:11:35.567Z,19.77
2022-12-19T09:14:09.389Z,18.23
2022-12-19T09:16:37.633Z,15.77
2022-12-19T09:19:05.929Z,19.70
2022-12-19T09:21:34.188Z,21.90
2022-12-19T09:24:07.938Z,20.10
2022-12-19T09:26:38.535Z,23.47
2022-12-19T09:29:12.706Z,20.57
2022-12-19T09:31:51.208Z,20.73
2022-12-19T09:34:36.942Z,22.13
2022-12-19T09:37:07.564Z,21.20
2022-12-19T09:39:37.475Z,21.73
2022-12-19T09:42:26.438Z,19.27
2022-12-19T09:45:31.573Z,19.53
2022-12-19T09:48:01.932Z,17.80
2022-12-19T09:50:44.391Z,18.70
2022-12-19T09:53:19.410Z,19.23
2022-12-19T09:55:49.470Z,19.53
2022-12-19T09:58:27.245Z,20.60
2022-12-19T10:01:00.130Z,20.30
2022-12-19T10:03:33.560Z,18.63
2022-12-19T10:07:16.300Z,21.17
2022-12-19T10:10:56.420Z,18.50
2022-12-19T10:12:37.284Z,25.17
2022-12-19T10:15:06.673Z,17.83
2022-12-19T10:17:47.628Z,19.63
2022-12-19T10:20:21.148Z,21.77
2022-12-19T10:23:01.109Z,20.03
2022-12-19T10:25:44.168Z,23.53
2022-12-19T10:28:25.645Z,20.33
2022-12-19T10:31:12.535Z,20.70
2022-12-19T10:33:48.742Z,21.10
2022-12-19T10:36:17.062Z,19.37
2022-12-19T10:38:52.003Z,22.10
2022-12-19T10:41:23.585Z,21.13
2022-12-19T10:44:02.405Z,21.50
2022-12-19T10:46:38.996Z,21.87
2022-12-19T10:49:16.740Z,19.97
2022-12-19T10:51:54.767Z,19.37
2022-12-19T10:54:30.720Z,19.83
2022-12-19T10:57:19.257Z,22.70
2022-12-19T10:59:57.864Z,20.27
2022-12-19T11:02:36.308Z,25.13
2022-12-19T11:05:06.851Z,22.43
2022-12-19T11:07:35.300Z,19.57
2022-12-19T11:10:15.878Z,26.50
2022-12-19T11:18:32.900Z,21.30
2022-12-19T11:20:10.109Z,21.90
2022-12-19T11:29:25.219Z,26.43
2022-12-19T11:29:32.814Z,21.23
2022-12-19T11:30:06.371Z,25.73
2022-12-19T11:30:39.206Z,25.93
2022-12-19T11:33:17.856Z,24.60
2022-12-19T11:35:51.617Z,25.90
2022-12-19T11:38:27.499Z,26.57
2022-12-19T11:40:58.104Z,23.43
2022-12-19T11:43:46.849Z,20.57
2022-12-19T11:46:33.629Z,21.93
2022-12-19T11:49:07.218Z,27.57
2022-12-19T11:51:42.784Z,23.63
2022-12-19T11:54:14.936Z,22.40
2022-12-19T11:56:43.473Z,24.40
2022-12-19T11:59:19.189Z,23.57
2022-12-19T12:01:59.196Z,25.27
2022-12-19T12:04:48.700Z,23.13
2022-12-19T12:07:47.195Z,24.57
2022-12-19T12:15:26.898Z,25.30
2022-12-19T12:23:40.327Z,24.93
2022-12-19T12:28:47.907Z,23.87
2022-12-19T12:31:08.956Z,22.00
2022-12-19T12:31:30.604Z,21.80
2022-12-19T12:31:46.587Z,25.20
2022-12-19T12:31:48.511Z,27.77
2022-12-19T12:31:51.877Z,23.40
2022-12-19T12:35:31.529Z,21.43
2022-12-19T12:39:43.908Z,22.50
2022-12-19T12:42:20.635Z,24.93
2022-12-19T12:44:50.200Z,21.93
2022-12-19T12:47:20.986Z,26.50
2022-12-19T12:49:54.056Z,24.07
2022-12-19T12:52:35.602Z,23.67
2022-12-19T12:55:07.927Z,27.67
2022-12-19T12:57:38.301Z,26.77
2022-12-19T13:00:19.318Z,25.70
2022-12-19T13:02:51.951Z,24.70
2022-12-19T13:05:31.325Z,26.63
2022-12-19T13:08:00.360Z,28.93
2022-12-19T13:10:32.559Z,22.97
2022-12-19T13:13:02.569Z,26.53
2022-12-19T13:15:48.770Z,25.37
2022-12-19T13:18:32.605Z,23.83
2022-12-19T13:21:02.681Z,23.20
2022-12-19T13:23:50.160Z,24.97
2022-12-19T13:26:51.126Z,26.13
2022-12-19T13:29:34.342Z,24.70
2022-12-19T13:32:13.379Z,22.77
2022-12-19T13:34:52.735Z,21.93
2022-12-19T13:40:00.639Z,21.60
2022-12-19T13:40:33.154Z,21.07
2022-12-19T13:43:30.875Z,21.63
2022-12-19T13:46:00.932Z,22.70
2022-12-19T13:48:32.467Z,20.70
2022-12-19T13:51:05.415Z,24.67
2022-12-19T13:53:33.855Z,24.27
2022-12-19T13:56:04.014Z,20.20
2022-12-19T13:58:38.122Z,20.83
2022-12-19T14:01:20.067Z,19.93
2022-12-19T14:03:49.992Z,21.77
2022-12-19T14:06:22.031Z,24.73
2022-12-19T14:09:37.440Z,23.53
2022-12-19T14:13:38.401Z,22.03
2022-12-19T14:15:02.763Z,20.97
2022-12-19T14:17:39.184Z,19.87
2022-12-19T14:22:03.909Z,21.73
2022-12-19T14:23:09.153Z,19.03
2022-12-19T14:28:17.162Z,19.80
2022-12-19T14:28:37.158Z,21.80
2022-12-19T14:31:09.190Z,25.33
2022-12-19T14:33:58.482Z,20.17
2022-12-19T14:36:28.944Z,19.90
2022-12-19T14:39:23.669Z,21.97
2022-12-19T14:42:05.339Z,20.63
2022-12-19T14:51:42.649Z,20.57
2022-12-19T14:54:14.082Z,23.20
2022-12-19T14:54:28.083Z,24.93
2022-12-19T14:54:40.196Z,24.80
2022-12-19T14:56:33.145Z,22.03
2022-12-19T14:59:00.557Z,21.07
2022-12-19T15:01:31.052Z,26.63
2022-12-19T15:04:51.191Z,23.43
2022-12-19T15:07:08.388Z,22.63
2022-12-19T15:11:00.376Z,20.33
2022-12-19T15:14:04.035Z,22.70
2022-12-19T15:16:00.625Z,25.87
2022-12-19T15:18:37.654Z,25.07
2022-12-19T15:21:09.189Z,25.67
2022-12-19T15:23:37.589Z,26.10
2022-12-19T15:26:08.914Z,21.97
2022-12-19T15:28:42.334Z,20.03
2022-12-19T15:31:34.458Z,23.00
2022-12-19T15:36:59.469Z,24.83
2022-12-19T15:39:29.810Z,23.23
2022-12-19T15:42:00.376Z,22.23
2022-12-19T15:44:32.573Z,21.70
2022-12-19T15:47:00.991Z,23.57
2022-12-19T15:49:29.468Z,23.70
2022-12-19T15:51:59.612Z,23.37
2022-12-19T15:57:22.459Z,24.50
2022-12-19T15:59:50.939Z,20.53
2022-12-19T16:02:21.598Z,25.63
2022-12-19T16:04:52.315Z,24.13
2022-12-19T16:07:25.364Z,21.97
2022-12-19T16:09:54.864Z,21.80
2022-12-19T16:12:25.969Z,22.87
2022-12-19T16:14:58.119Z,21.30
2022-12-19T16:17:27.341Z,22.57
2022-12-19T16:19:55.666Z,22.73
2022-12-19T16:22:29.425Z,22.80
2022-12-19T16:24:58.307Z,21.50
2022-12-19T16:27:29.110Z,24.27
2022-12-19T16:29:59.359Z,24.10
2022-12-19T16:32:27.823Z,22.07
2022-12-19T16:34:56.078Z,25.40
2022-12-19T16:37:32.069Z,20.90
2022-12-19T16:40:02.016Z,21.07
2022-12-19T16:42:31.303Z,24.70
2022-12-19T16:44:59.783Z,22.30
2022-12-19T16:47:28.145Z,21.23
2022-12-19T16:49:57.336Z,26.23
2022-12-19T16:52:26.943Z,24.60
2022-12-19T16:54:55.220Z,27.43
2022-12-19T16:57:23.867Z,23.97
2022-12-19T16:59:52.240Z,26.10
2022-12-19T17:02:40.659Z,25.23
2022-12-19T17:05:16.275Z,25.13
2022-12-19T17:07:46.113Z,29.90
2022-12-19T17:10:14.652Z,28.60
2022-12-19T17:12:43.446Z,26.43
2022-12-19T17:15:21.163Z,25.57
2022-12-19T17:17:50.025Z,28.37
2022-12-19T17:20:20.141Z,33.77
2022-12-19T17:22:49.947Z,78.27
2022-12-19T17:25:21.685Z,72.83
2022-12-19T17:27:50.745Z,35.23
2022-12-19T17:30:19.426Z,34.10
2022-12-19T17:32:50.025Z,34.93
2022-12-19T17:35:27.288Z,37.10
2022-12-19T17:37:58.803Z,33.73
2022-12-19T17:40:29.431Z,34.23
2022-12-19T17:42:58.269Z,37.60
2022-12-19T17:45:27.908Z,35.27
2022-12-19T17:48:02.343Z,35.63
2022-12-19T17:50:33.518Z,38.27
2022-12-19T17:53:03.213Z,45.90
2022-12-19T17:55:32.097Z,36.57
2022-12-19T17:58:00.670Z,43.20
2022-12-19T18:00:30.902Z,38.23
2022-12-19T18:03:01.993Z,41.00
2022-12-19T18:05:33.363Z,36.67
2022-12-19T18:08:03.163Z,41.23
2022-12-19T18:10:33.456Z,40.57
2022-12-19T18:13:01.702Z,40.63
2022-12-19T18:15:29.982Z,40.30
2022-12-19T18:17:58.924Z,50.43
2022-12-19T18:20:31.988Z,39.97
2022-12-19T18:23:03.421Z,45.93
2022-12-19T18:25:35.160Z,49.37
2022-12-19T18:28:03.683Z,46.67
2022-12-19T18:30:32.080Z,43.33
2022-12-19T18:33:02.517Z,46.47
2022-12-19T18:35:33.501Z,39.70
2022-12-19T18:38:05.276Z,44.97
2022-12-19T18:40:33.735Z,42.83
2022-12-19T18:43:02.111Z,45.17
2022-12-19T18:45:36.206Z,48.20
2022-12-19T18:48:07.890Z,43.20
2022-12-19T18:50:36.242Z,41.47
2022-12-19T18:53:10.653Z,41.23
2022-12-19T18:55:38.939Z,46.10
2022-12-19T18:58:07.253Z,47.93
2022-12-19T19:00:36.610Z,52.70
2022-12-19T19:03:07.162Z,52.80
2022-12-19T19:05:37.098Z,54.37
2022-12-19T19:08:17.080Z,47.77
2022-12-19T19:10:50.181Z,51.37
2022-12-19T19:13:21.156Z,49.43
2022-12-19T19:15:51.030Z,50.53
2022-12-19T19:18:23.239Z,58.30
2022-12-19T19:20:58.831Z,46.70
2022-12-19T19:23:33.892Z,49.93
2022-12-19T19:26:02.171Z,52.07
2022-12-19T19:28:30.498Z,44.53
2022-12-19T19:31:00.991Z,47.87
2022-12-19T19:33:32.271Z,48.47
2022-12-19T19:36:10.919Z,50.87
2022-12-19T19:38:42.013Z,48.63
2022-12-19T19:41:10.261Z,54.73
2022-12-19T19:43:38.551Z,51.17
2022-12-19T19:46:07.134Z,52.83
2022-12-19T19:48:35.640Z,50.33
2022-12-19T19:51:04.185Z,51.87
2022-12-19T19:53:32.403Z,48.77
2022-12-19T19:56:02.666Z,57.57
2022-12-19T19:58:31.638Z,47.47
2022-12-19T20:00:59.986Z,52.30
2022-12-19T20:03:28.541Z,52.17
2022-12-19T20:06:00.829Z,44.07
2022-12-19T20:08:37.082Z,48.03
2022-12-19T20:11:10.646Z,52.10
2022-12-19T20:13:39.580Z,49.97
2022-12-19T20:16:09.911Z,47.60
2022-12-19T20:18:39.926Z,47.97
2022-12-19T20:21:12.653Z,45.97
2022-12-19T20:23:43.162Z,45.40
2022-12-19T20:26:13.491Z,44.93
2022-12-19T20:28:48.356Z,41.17
2022-12-19T20:31:17.793Z,44.47
2022-12-19T20:33:46.610Z,45.30
2022-12-19T20:36:15.385Z,43.67
2022-12-19T20:38:43.942Z,47.40
2022-12-19T20:41:13.780Z,42.87
2022-12-19T20:43:42.194Z,45.33
2022-12-19T20:46:12.632Z,46.43
2022-12-19T20:48:41.600Z,43.07
2022-12-19T20:51:09.976Z,42.70
2022-12-19T20:53:41.561Z,45.27
2022-12-19T20:56:14.183Z,40.73
2022-12-19T20:58:42.579Z,40.13
2022-12-19T21:01:12.750Z,45.97
2022-12-19T21:03:41.527Z,46.27
2022-12-19T21:06:11.012Z,41.97
2022-12-19T21:08:39.737Z,45.10
2022-12-19T21:11:09.169Z,45.30
2022-12-19T21:13:41.054Z,48.13
2022-12-19T21:16:12.576Z,46.93
2022-12-19T21:18:42.615Z,43.90
2022-12-19T21:21:14.949Z,51.53
2022-12-19T21:23:43.648Z,46.87
2022-12-19T21:26:12.321Z,44.40
2022-12-19T21:28:42.155Z,42.37
2022-12-19T21:31:16.181Z,43.93
2022-12-19T21:33:45.270Z,48.73
2022-12-19T21:36:16.634Z,48.00
2022-12-19T21:38:44.979Z,43.00
2022-12-19T21:41:18.642Z,44.87
2022-12-19T21:43:49.015Z,47.60
2022-12-19T21:46:18.253Z,48.47
2022-12-19T21:48:48.721Z,43.73
2022-12-19T21:51:18.537Z,45.73
2022-12-19T21:53:46.872Z,46.57
2022-12-19T21:56:23.335Z,44.77
2022-12-19T21:58:54.518Z,39.47
2022-12-19T22:01:23.220Z,42.00
2022-12-19T22:03:52.297Z,45.00
2022-12-19T22:06:28.315Z,36.73
2022-12-19T22:08:57.567Z,38.83
2022-12-19T22:11:26.090Z,36.80
2022-12-19T22:13:55.784Z,39.80
2022-12-19T22:16:24.152Z,39.30
2022-12-19T22:18:53.069Z,36.37
2022-12-19T22:21:22.269Z,37.03
2022-12-19T22:23:50.552Z,36.63
2022-12-19T22:26:21.073Z,34.97
2022-12-19T22:28:50.822Z,38.80
2022-12-19T22:31:22.353Z,36.40
2022-12-19T22:33:51.694Z,35.27
2022-12-19T22:36:27.328Z,34.10
2022-12-19T22:38:56.251Z,37.33
2022-12-19T22:41:24.631Z,32.27
2022-12-19T22:43:53.075Z,34.07
2022-12-19T22:46:26.220Z,32.33
2022-12-19T22:48:56.725Z,33.73
2022-12-19T22:51:25.210Z,32.97
2022-12-19T22:53:53.472Z,31.07
2022-12-19T22:56:24.045Z,29.03
2022-12-19T22:58:53.857Z,31.07
2022-12-19T23:01:25.030Z,30.00
2022-12-19T23:03:56.184Z,29.63
2022-12-19T23:06:26.259Z,27.33
2022-12-19T23:08:54.938Z,26.73
2022-12-19T23:11:25.039Z,28.13
2022-12-19T23:13:53.685Z,28.27
2022-12-19T23:16:23.435Z,27.20
2022-12-19T23:18:51.830Z,27.90
2022-12-19T23:21:21.825Z,24.30
2022-12-19T23:23:51.584Z,27.23
2022-12-19T23:26:21.958Z,25.33
2022-12-19T23:28:53.310Z,24.97
2022-12-19T23:31:23.270Z,25.63
2022-12-19T23:33:51.568Z,26.93
2022-12-19T23:36:38.082Z,24.47
2022-12-19T23:39:08.443Z,24.97
2022-12-19T23:41:36.727Z,26.37
2022-12-19T23:44:05.208Z,23.33
2022-12-19T23:46:34.842Z,25.40
2022-12-19T23:49:03.325Z,24.00
2022-12-19T23:51:31.891Z,24.77
2022-12-19T23:54:00.121Z,26.20
2022-12-19T23:56:30.638Z,26.97
2022-12-19T23:58:59.458Z,28.57
